Terminal Aerodrome Forecast
Issued by NWS Billings, MT

Home | Current Version | Previous Version | Text Only | Print | Product List | Glossary On
Versions: 1 2 3 4 5 6 7 8 9 10 11 12 13 14 15 16 17 18 19 20 21 22 23 24 25 26 27 28 29 30 31 32
000
FTUS45 KBYZ 201733
TAFBIL
TAF
KBIL 201733Z 2018/2118 30009KT P6SM VCSH SCT080 BKN110 OVC180
     FM202200 33008KT P6SM VCTS SCT060CB BKN080
     FM210300 27008KT P6SM VCSH SCT040 BKN080
     FM211000 31008KT P6SM SCT100=

USA.gov is the U.S. government's official web portal to all federal, state and local government web resources and services.